Time;durP1;ratioP1;P1;durP2;ratioP2;P2;SDS_P1;SDS_P2;PMS_P1;PMS_P2;Temp;Humidity;BMP_temperature;BMP_pressure;BME280_temperature;BME280_humidity;BME280_pressure;Samples;Min_cycle;Max_cycle;Signal;HPM_P1;HPM_P2
2022/03/24 00:00:40;;;;;;;9.77;4.90;;;;;;;;;;10370097;28;20049;-50
2022/03/24 00:05:41;;;;;;;11.25;4.97;;;;;;;;;;10367497;28;20146;-51
2022/03/24 00:10:42;;;;;;;11.75;5.10;;;;;;;;;;10361504;28;20099;-52
2022/03/24 00:15:43;;;;;;;14.40;5.85;;;;;;;;;;10370258;28;20045;-51
2022/03/24 00:20:43;;;;;;;8.73;5.50;;;;;;;;;;10364000;28;20056;-55
2022/03/24 00:25:44;;;;;;;16.27;5.03;;;;;;;;;;10363833;28;20029;-55
2022/03/24 00:30:44;;;;;;;16.52;5.63;;;;;;;;;;10370176;28;20084;-55
2022/03/24 00:35:45;;;;;;;8.27;5.25;;;;;;;;;;10364752;28;20612;-50
2022/03/24 00:40:45;;;;;;;7.32;5.13;;;;;;;;;;10368034;28;20560;-49
2022/03/24 00:45:46;;;;;;;12.45;5.13;;;;;;;;;;10365907;28;20085;-45
2022/03/24 00:50:47;;;;;;;16.83;5.55;;;;;;;;;;10369129;28;20022;-50
2022/03/24 00:55:47;;;;;;;10.95;4.40;;;;;;;;;;10366130;28;20026;-52
2022/03/24 01:00:48;;;;;;;10.93;5.22;;;;;;;;;;10368763;28;20026;-51
2022/03/24 01:24:38;;;;;;;10.18;4.45;;;;;;;;;;10342561;28;20042;-48
2022/03/24 01:29:38;;;;;;;8.88;4.45;;;;;;;;;;10369787;28;20072;-49
2022/03/24 01:47:10;;;;;;;10.63;4.43;;;;;;;;;;10368280;28;20054;-48
2022/03/24 01:52:14;;;;;;;8.15;4.38;;;;;;;;;;10366307;28;20406;-47
2022/03/24 01:57:17;;;;;;;8.73;4.30;;;;;;;;;;10375576;28;20034;-50
2022/03/24 02:02:18;;;;;;;8.45;4.32;;;;;;;;;;10373688;28;20025;-52
2022/03/24 02:07:18;;;;;;;10.80;4.57;;;;;;;;;;10375227;28;20425;-46
2022/03/24 02:12:19;;;;;;;8.52;4.20;;;;;;;;;;10375090;28;20466;-52
2022/03/24 02:17:19;;;;;;;7.93;4.40;;;;;;;;;;10374392;28;20058;-48
2022/03/24 02:22:20;;;;;;;7.07;4.53;;;;;;;;;;10368228;28;20463;-55
2022/03/24 02:27:22;;;;;;;7.32;4.20;;;;;;;;;;10367598;28;20386;-50
2022/03/24 02:32:23;;;;;;;5.78;3.95;;;;;;;;;;10370552;28;20034;-50
2022/03/24 02:37:28;;;;;;;6.85;4.38;;;;;;;;;;10369044;28;20033;-57
2022/03/24 02:42:30;;;;;;;8.82;4.20;;;;;;;;;;10373935;28;20022;-57
2022/03/24 02:47:31;;;;;;;8.98;4.25;;;;;;;;;;10371996;28;20045;-52
2022/03/24 02:52:32;;;;;;;8.63;4.28;;;;;;;;;;10372598;28;20401;-56
2022/03/24 02:57:33;;;;;;;5.97;4.30;;;;;;;;;;10360425;28;20026;-58
2022/03/24 03:02:34;;;;;;;6.57;4.35;;;;;;;;;;10378194;28;20057;-52
2022/03/24 03:07:34;;;;;;;8.77;4.05;;;;;;;;;;10363586;28;20037;-49
2022/03/24 03:12:35;;;;;;;6.97;4.60;;;;;;;;;;10377033;28;20041;-52
2022/03/24 03:17:37;;;;;;;7.13;4.38;;;;;;;;;;10366848;28;20034;-50
2022/03/24 03:22:38;;;;;;;5.63;3.92;;;;;;;;;;10378076;28;20029;-49
2022/03/24 03:27:38;;;;;;;6.82;3.97;;;;;;;;;;10364943;28;20474;-57
2022/03/24 03:32:40;;;;;;;6.25;4.47;;;;;;;;;;10369169;28;20091;-55
2022/03/24 03:37:40;;;;;;;7.55;3.95;;;;;;;;;;10360750;28;20030;-58
2022/03/24 03:42:41;;;;;;;6.13;4.18;;;;;;;;;;10377800;28;20417;-49
2022/03/24 03:47:42;;;;;;;10.00;4.15;;;;;;;;;;10360697;28;20052;-49
2022/03/24 03:52:42;;;;;;;6.38;4.22;;;;;;;;;;10377901;28;20029;-49
2022/03/24 03:57:43;;;;;;;9.43;4.18;;;;;;;;;;10364826;28;20026;-54
2022/03/24 04:02:43;;;;;;;5.63;4.03;;;;;;;;;;10368159;28;20040;-52
2022/03/24 04:07:44;;;;;;;7.07;4.30;;;;;;;;;;10367620;28;20037;-54
2022/03/24 04:12:44;;;;;;;6.28;3.97;;;;;;;;;;10377451;28;20079;-50
2022/03/24 04:17:45;;;;;;;6.68;3.90;;;;;;;;;;10365860;28;20029;-49
2022/03/24 04:22:52;;;;;;;5.28;3.58;;;;;;;;;;10375445;28;20026;-52
2022/03/24 04:27:54;;;;;;;7.45;4.50;;;;;;;;;;10365897;28;20036;-54
2022/03/24 04:32:55;;;;;;;7.90;4.10;;;;;;;;;;10371391;28;20129;-48
2022/03/24 04:37:55;;;;;;;5.38;3.90;;;;;;;;;;10360529;28;20033;-46
2022/03/24 04:42:56;;;;;;;7.45;3.88;;;;;;;;;;10368891;28;20409;-55
2022/03/24 04:47:57;;;;;;;6.82;4.22;;;;;;;;;;10375439;28;20033;-55
2022/03/24 04:52:58;;;;;;;7.13;3.90;;;;;;;;;;10379977;28;20359;-55
2022/03/24 04:57:58;;;;;;;7.60;4.40;;;;;;;;;;10374825;28;20034;-48
2022/03/24 05:02:59;;;;;;;8.18;4.07;;;;;;;;;;10380571;28;20026;-53
2022/03/24 05:08:00;;;;;;;7.07;3.80;;;;;;;;;;10374682;28;20033;-50
2022/03/24 05:13:00;;;;;;;5.93;3.90;;;;;;;;;;10376502;28;20718;-46
2022/03/24 05:18:01;;;;;;;4.75;3.50;;;;;;;;;;10372223;28;20099;-52
2022/03/24 05:23:01;;;;;;;4.78;3.55;;;;;;;;;;10384121;28;20052;-55
2022/03/24 05:28:04;;;;;;;6.07;3.83;;;;;;;;;;10368579;28;20022;-53
2022/03/24 05:33:04;;;;;;;6.93;3.80;;;;;;;;;;10366611;28;20120;-54
2022/03/24 05:38:05;;;;;;;4.90;3.45;;;;;;;;;;10367990;28;20042;-52
2022/03/24 05:43:06;;;;;;;7.00;4.20;;;;;;;;;;10373701;28;20041;-50
2022/03/24 05:48:06;;;;;;;6.13;3.85;;;;;;;;;;10365970;28;20456;-57
2022/03/24 05:53:07;;;;;;;6.75;3.80;;;;;;;;;;10382712;28;20045;-59
2022/03/24 05:58:08;;;;;;;7.30;4.43;;;;;;;;;;10370696;28;20051;-58
2022/03/24 06:03:09;;;;;;;6.15;3.90;;;;;;;;;;10382449;28;20042;-49
2022/03/24 06:08:11;;;;;;;5.55;3.72;;;;;;;;;;10372097;28;20513;-48
2022/03/24 06:13:12;;;;;;;5.60;4.03;;;;;;;;;;10381529;28;20038;-56
2022/03/24 06:18:12;;;;;;;6.35;3.85;;;;;;;;;;10370154;28;20045;-47
2022/03/24 06:23:13;;;;;;;8.90;3.78;;;;;;;;;;10379789;28;20030;-57
2022/03/24 06:28:13;;;;;;;5.25;3.75;;;;;;;;;;10367903;28;20030;-53
2022/03/24 06:33:16;;;;;;;6.32;3.85;;;;;;;;;;10377842;28;20034;-52
2022/03/24 06:38:18;;;;;;;8.50;4.00;;;;;;;;;;10356092;28;20042;-49
2022/03/24 06:43:18;;;;;;;4.95;3.42;;;;;;;;;;10381023;28;20070;-48
2022/03/24 06:48:19;;;;;;;4.78;3.38;;;;;;;;;;10355789;28;20108;-46
2022/03/24 06:53:19;;;;;;;7.20;4.32;;;;;;;;;;10370951;28;20037;-47
2022/03/24 06:58:21;;;;;;;11.98;4.07;;;;;;;;;;10365918;28;20030;-48
2022/03/24 07:03:22;;;;;;;16.92;5.20;;;;;;;;;;10378298;28;20030;-50
2022/03/24 07:08:23;;;;;;;15.77;4.88;;;;;;;;;;10368797;28;20030;-54
2022/03/24 07:13:23;;;;;;;19.95;5.78;;;;;;;;;;10371749;28;20033;-47
2022/03/24 07:18:24;;;;;;;20.08;6.22;;;;;;;;;;10369377;28;20072;-47
2022/03/24 07:23:25;;;;;;;15.13;5.50;;;;;;;;;;10373661;28;20030;-53
2022/03/24 07:28:26;;;;;;;20.30;7.10;;;;;;;;;;10367156;28;20041;-50
2022/03/24 07:33:27;;;;;;;23.95;6.35;;;;;;;;;;10367010;28;20384;-48
2022/03/24 07:38:28;;;;;;;19.23;5.80;;;;;;;;;;10358770;28;20037;-48
2022/03/24 07:43:28;;;;;;;65.65;7.53;;;;;;;;;;10366816;28;20034;-48
2022/03/24 07:48:30;;;;;;;42.92;5.95;;;;;;;;;;10361106;28;20029;-47
2022/03/24 07:53:49;;;;;;;61.58;8.80;;;;;;;;;;10375987;28;20041;-56
2022/03/24 07:58:50;;;;;;;52.85;8.50;;;;;;;;;;10366394;28;20030;-45
2022/03/24 08:03:52;;;;;;;41.92;7.13;;;;;;;;;;10372035;28;20026;-44
2022/03/24 08:08:53;;;;;;;35.15;7.30;;;;;;;;;;10366665;28;20112;-45
2022/03/24 08:13:55;;;;;;;30.85;7.38;;;;;;;;;;10371132;28;20037;-44
2022/03/24 08:18:56;;;;;;;26.70;7.28;;;;;;;;;;10364242;28;20505;-50
2022/03/24 08:23:56;;;;;;;36.72;7.95;;;;;;;;;;10367962;28;20091;-56
2022/03/24 08:28:57;;;;;;;22.33;6.90;;;;;;;;;;10367195;28;20037;-46
2022/03/24 08:33:58;;;;;;;26.20;7.22;;;;;;;;;;10372057;28;20488;-46
2022/03/24 08:38:59;;;;;;;14.35;6.90;;;;;;;;;;10362396;28;20026;-43
2022/03/24 08:44:00;;;;;;;21.38;7.30;;;;;;;;;;10376606;28;20073;-47
2022/03/24 08:49:01;;;;;;;13.32;6.30;;;;;;;;;;10365859;28;20040;-50
2022/03/24 08:54:02;;;;;;;19.90;7.22;;;;;;;;;;10369363;28;20033;-50
2022/03/24 08:59:04;;;;;;;16.48;6.57;;;;;;;;;;10362234;28;20091;-46
2022/03/24 09:04:05;;;;;;;20.13;6.50;;;;;;;;;;10375544;28;20250;-45
2022/03/24 09:09:06;;;;;;;15.77;6.25;;;;;;;;;;10365540;28;20030;-47
2022/03/24 09:14:07;;;;;;;18.38;7.22;;;;;;;;;;10376050;28;20454;-50
2022/03/24 09:19:08;;;;;;;15.60;6.82;;;;;;;;;;10363866;28;20061;-44
2022/03/24 09:24:08;;;;;;;19.95;7.13;;;;;;;;;;10371381;28;20058;-50
2022/03/24 09:29:10;;;;;;;15.32;7.07;;;;;;;;;;10368575;28;20084;-47
2022/03/24 09:34:10;;;;;;;18.80;6.35;;;;;;;;;;10383208;28;20030;-49
2022/03/24 09:39:11;;;;;;;14.10;6.68;;;;;;;;;;10374761;28;20030;-47
2022/03/24 09:44:13;;;;;;;17.02;6.55;;;;;;;;;;10362671;28;20112;-46
2022/03/24 09:49:14;;;;;;;17.20;6.70;;;;;;;;;;10375327;28;20490;-60
2022/03/24 09:54:15;;;;;;;12.52;6.85;;;;;;;;;;10376508;28;20034;-46
2022/03/24 09:59:16;;;;;;;16.02;7.10;;;;;;;;;;10365210;28;20030;-46
2022/03/24 10:04:18;;;;;;;14.98;6.57;;;;;;;;;;10375259;28;20033;-47
2022/03/24 10:09:42;;;;;;;16.80;7.00;;;;;;;;;;10367787;28;20042;-51
2022/03/24 10:14:42;;;;;;;11.32;5.53;;;;;;;;;;10379083;28;20029;-44
2022/03/24 10:20:04;;;;;;;16.67;7.03;;;;;;;;;;10366146;28;20025;-48
2022/03/24 10:25:35;;;;;;;14.18;7.07;;;;;;;;;;10383534;28;20062;-47
2022/03/24 10:30:49;;;;;;;18.90;8.48;;;;;;;;;;10367746;28;20034;-47
2022/03/24 10:35:49;;;;;;;13.70;7.35;;;;;;;;;;10376081;28;20087;-50
2022/03/24 10:40:50;;;;;;;19.05;9.15;;;;;;;;;;10370459;28;20336;-48
2022/03/24 10:45:50;;;;;;;14.48;8.57;;;;;;;;;;10372820;28;20049;-44
2022/03/24 10:50:56;;;;;;;16.42;7.97;;;;;;;;;;10351217;28;20033;-46
2022/03/24 10:56:06;;;;;;;13.13;8.45;;;;;;;;;;10374465;28;20482;-49
2022/03/24 11:01:14;;;;;;;12.23;7.75;;;;;;;;;;10375259;28;20061;-44
2022/03/24 11:06:22;;;;;;;12.80;7.93;;;;;;;;;;10340823;28;20457;-46
2022/03/24 11:11:25;;;;;;;19.83;8.57;;;;;;;;;;10368545;28;20120;-44
2022/03/24 11:16:34;;;;;;;15.50;7.68;;;;;;;;;;10371205;28;20037;-48
2022/03/24 11:21:57;;;;;;;13.20;7.88;;;;;;;;;;10360936;28;20065;-49
2022/03/24 11:26:58;;;;;;;14.52;7.85;;;;;;;;;;10366810;28;20094;-46
2022/03/24 11:31:59;;;;;;;18.60;8.93;;;;;;;;;;10370104;28;20455;-44
2022/03/24 11:37:01;;;;;;;17.95;8.38;;;;;;;;;;10374827;28;20034;-50
2022/03/24 11:42:02;;;;;;;15.35;8.43;;;;;;;;;;10372374;28;20048;-49
2022/03/24 11:47:12;;;;;;;13.90;8.55;;;;;;;;;;10374275;28;20053;-45
2022/03/24 11:52:13;;;;;;;21.15;9.25;;;;;;;;;;10373741;28;20156;-47
2022/03/24 11:57:23;;;;;;;16.38;9.35;;;;;;;;;;10371207;28;20026;-44
2022/03/24 12:02:25;;;;;;;16.48;9.77;;;;;;;;;;10375539;28;20034;-46
2022/03/24 12:07:27;;;;;;;15.23;9.57;;;;;;;;;;10365495;28;20034;-49
2022/03/24 12:12:29;;;;;;;16.15;9.98;;;;;;;;;;10357128;28;20109;-45
2022/03/24 12:17:34;;;;;;;24.02;11.00;;;;;;;;;;10358066;28;20037;-49
2022/03/24 12:22:36;;;;;;;22.33;11.15;;;;;;;;;;10372402;28;20027;-48
2022/03/24 12:27:56;;;;;;;18.98;10.93;;;;;;;;;;10367104;28;20049;-47
2022/03/24 12:33:05;;;;;;;14.43;10.88;;;;;;;;;;10367081;28;20033;-49
2022/03/24 12:38:35;;;;;;;23.92;12.13;;;;;;;;;;10364560;28;20057;-46
2022/03/24 12:43:49;;;;;;;17.95;11.38;;;;;;;;;;10365438;28;20081;-43
2022/03/24 12:48:50;;;;;;;17.13;11.20;;;;;;;;;;10365964;28;20115;-48
2022/03/24 12:54:03;;;;;;;22.88;10.80;;;;;;;;;;10368802;28;20381;-46
2022/03/24 12:59:08;;;;;;;17.55;10.95;;;;;;;;;;10367375;28;20108;-49
2022/03/24 13:04:09;;;;;;;20.45;10.40;;;;;;;;;;10373583;28;20037;-45
2022/03/24 13:09:16;;;;;;;16.25;9.95;;;;;;;;;;10368598;28;20033;-44
2022/03/24 13:14:19;;;;;;;24.45;9.75;;;;;;;;;;10375299;28;20461;-46
2022/03/24 13:19:22;;;;;;;18.90;8.98;;;;;;;;;;10365473;28;20038;-44
2022/03/24 13:24:25;;;;;;;14.90;8.85;;;;;;;;;;10374707;28;20045;-57
2022/03/24 13:29:44;;;;;;;13.02;7.90;;;;;;;;;;10364829;28;20112;-50
2022/03/24 13:35:00;;;;;;;11.10;8.20;;;;;;;;;;10380221;28;20030;-46
2022/03/24 13:40:01;;;;;;;20.73;8.05;;;;;;;;;;10364794;28;20034;-47
2022/03/24 13:45:03;;;;;;;12.80;8.02;;;;;;;;;;10384039;28;20046;-47
2022/03/24 13:50:06;;;;;;;15.05;6.63;;;;;;;;;;10361151;28;20037;-65
2022/03/24 13:55:07;;;;;;;11.77;6.95;;;;;;;;;;10376100;28;20038;-63
2022/03/24 14:00:08;;;;;;;18.10;7.25;;;;;;;;;;10364788;28;20391;-67
2022/03/24 14:05:09;;;;;;;18.75;7.78;;;;;;;;;;10384428;28;20034;-45
2022/03/24 14:10:10;;;;;;;16.60;6.82;;;;;;;;;;10373139;28;20394;-49
2022/03/24 14:15:17;;;;;;;16.20;6.93;;;;;;;;;;10375247;28;20044;-49
2022/03/24 14:20:17;;;;;;;25.38;7.95;;;;;;;;;;10359327;28;20109;-53
2022/03/24 14:25:23;;;;;;;36.90;8.68;;;;;;;;;;10359381;28;20081;-44
2022/03/24 14:30:30;;;;;;;38.67;8.93;;;;;;;;;;10350294;28;20648;-62
2022/03/24 14:35:32;;;;;;;32.65;8.25;;;;;;;;;;10374227;28;20038;-44
2022/03/24 14:40:38;;;;;;;36.42;9.40;;;;;;;;;;10373233;28;20082;-62
2022/03/24 14:45:42;;;;;;;32.80;8.93;;;;;;;;;;10374110;28;20060;-57
2022/03/24 14:50:45;;;;;;;31.77;8.23;;;;;;;;;;10370147;28;20119;-49
2022/03/24 14:55:46;;;;;;;35.50;9.25;;;;;;;;;;10375038;28;20050;-58
2022/03/24 15:00:46;;;;;;;25.38;8.35;;;;;;;;;;10373080;28;20037;-46
2022/03/24 15:05:47;;;;;;;16.67;7.32;;;;;;;;;;10371235;28;20041;-44
2022/03/24 15:10:47;;;;;;;26.00;7.10;;;;;;;;;;10372746;28;20028;-49
2022/03/24 15:16:03;;;;;;;14.48;6.72;;;;;;;;;;10369977;28;20042;-47
2022/03/24 15:21:04;;;;;;;19.27;7.05;;;;;;;;;;10362692;28;20597;-45
2022/03/24 15:26:05;;;;;;;18.98;6.78;;;;;;;;;;10358730;28;20046;-47
2022/03/24 15:31:05;;;;;;;22.52;6.82;;;;;;;;;;10358856;28;20042;-48
2022/03/24 15:36:06;;;;;;;13.00;6.32;;;;;;;;;;10353367;28;20401;-47
2022/03/24 15:41:07;;;;;;;21.25;6.25;;;;;;;;;;10355102;28;20033;-52
2022/03/24 15:46:08;;;;;;;19.02;6.47;;;;;;;;;;10356595;28;20084;-46
2022/03/24 15:51:10;;;;;;;14.80;6.15;;;;;;;;;;10358003;28;20117;-57
2022/03/24 15:56:11;;;;;;;14.63;5.75;;;;;;;;;;10354009;28;20117;-44
2022/03/24 16:01:11;;;;;;;18.10;6.05;;;;;;;;;;10358218;28;20057;-44
2022/03/24 16:06:12;;;;;;;11.25;5.72;;;;;;;;;;10353948;28;20038;-44
2022/03/24 16:11:13;;;;;;;18.85;6.10;;;;;;;;;;10362787;28;20048;-44
2022/03/24 16:16:14;;;;;;;16.13;5.28;;;;;;;;;;10352556;28;20030;-44
2022/03/24 16:21:15;;;;;;;12.55;5.20;;;;;;;;;;10345487;28;20044;-45
2022/03/24 16:26:16;;;;;;;11.90;5.80;;;;;;;;;;10367107;28;20036;-44
2022/03/24 16:31:16;;;;;;;14.00;5.43;;;;;;;;;;10364416;28;20034;-44
2022/03/24 16:36:18;;;;;;;10.10;5.07;;;;;;;;;;10368353;28;20055;-50
2022/03/24 16:41:18;;;;;;;12.80;5.32;;;;;;;;;;10374243;28;20053;-44
2022/03/24 16:46:19;;;;;;;13.65;5.50;;;;;;;;;;10364800;28;20410;-65
2022/03/24 16:51:20;;;;;;;13.45;5.25;;;;;;;;;;10353129;28;20040;-53
2022/03/24 16:56:20;;;;;;;13.98;5.80;;;;;;;;;;10361644;28;20157;-44
2022/03/24 17:01:21;;;;;;;10.32;5.20;;;;;;;;;;10364315;28;20030;-44
2022/03/24 17:06:21;;;;;;;7.82;5.38;;;;;;;;;;10357018;28;20594;-45
2022/03/24 17:11:22;;;;;;;10.18;5.15;;;;;;;;;;10366952;28;20037;-44
2022/03/24 17:16:23;;;;;;;9.85;5.30;;;;;;;;;;10363647;28;20030;-45
2022/03/24 17:21:23;;;;;;;12.45;5.10;;;;;;;;;;10375789;28;20026;-47
2022/03/24 17:26:24;;;;;;;8.73;4.57;;;;;;;;;;10370436;28;20025;-51
2022/03/24 17:31:25;;;;;;;11.15;4.32;;;;;;;;;;10365050;28;20053;-45
2022/03/24 17:36:26;;;;;;;8.45;5.03;;;;;;;;;;10362009;28;20029;-64
2022/03/24 17:41:27;;;;;;;8.75;4.97;;;;;;;;;;10360886;28;20593;-61
2022/03/24 17:46:27;;;;;;;7.40;4.65;;;;;;;;;;10361058;28;20049;-63
2022/03/24 17:51:28;;;;;;;12.20;4.63;;;;;;;;;;10375136;28;20087;-62
2022/03/24 17:56:28;;;;;;;11.85;4.78;;;;;;;;;;10379566;28;20095;-61
2022/03/24 18:01:29;;;;;;;17.55;5.07;;;;;;;;;;10363232;28;20034;-51
2022/03/24 18:06:30;;;;;;;10.15;4.95;;;;;;;;;;10352817;28;20053;-46
2022/03/24 18:11:31;;;;;;;8.60;4.75;;;;;;;;;;10336221;28;20030;-45
2022/03/24 18:16:32;;;;;;;11.48;5.22;;;;;;;;;;10369193;28;20453;-44
2022/03/24 18:21:33;;;;;;;13.10;4.88;;;;;;;;;;10369343;28;20037;-47
2022/03/24 18:26:34;;;;;;;11.65;4.72;;;;;;;;;;10377377;28;20113;-61
2022/03/24 18:31:35;;;;;;;12.30;5.35;;;;;;;;;;10372547;28;20041;-45
2022/03/24 18:36:35;;;;;;;11.35;5.22;;;;;;;;;;10377108;28;20449;-48
2022/03/24 18:41:36;;;;;;;20.40;5.72;;;;;;;;;;10369913;28;20049;-44
2022/03/24 18:46:38;;;;;;;17.55;5.78;;;;;;;;;;10365801;28;20046;-65
2022/03/24 18:51:39;;;;;;;15.05;6.13;;;;;;;;;;10365256;28;20425;-65
2022/03/24 18:56:40;;;;;;;15.38;5.75;;;;;;;;;;10371457;22;20050;-60
2022/03/24 19:01:41;;;;;;;11.38;5.45;;;;;;;;;;10310923;28;20036;-60
2022/03/24 19:06:41;;;;;;;10.25;5.45;;;;;;;;;;10307887;28;20034;-60
2022/03/24 19:11:42;;;;;;;18.67;6.25;;;;;;;;;;10292790;28;20027;-60
2022/03/24 19:16:43;;;;;;;11.75;5.45;;;;;;;;;;10293266;28;20033;-60
2022/03/24 19:21:44;;;;;;;10.73;5.30;;;;;;;;;;10277991;28;20044;-60
2022/03/24 19:26:44;;;;;;;10.15;4.80;;;;;;;;;;10283812;28;20034;-61
2022/03/24 19:31:46;;;;;;;21.80;6.07;;;;;;;;;;10286575;28;20051;-60
2022/03/24 19:36:47;;;;;;;11.63;5.82;;;;;;;;;;10287381;28;20030;-60
2022/03/24 19:41:48;;;;;;;19.42;5.90;;;;;;;;;;10285206;28;20035;-60
2022/03/24 19:46:48;;;;;;;14.05;5.55;;;;;;;;;;10275596;28;20031;-60
2022/03/24 19:51:49;;;;;;;21.92;7.13;;;;;;;;;;10283744;28;20090;-60
2022/03/24 19:56:50;;;;;;;58.17;7.20;;;;;;;;;;10277928;28;20057;-60
2022/03/24 20:01:51;;;;;;;17.38;6.38;;;;;;;;;;10283341;28;20085;-61
2022/03/24 20:06:51;;;;;;;27.80;5.75;;;;;;;;;;10288188;28;20041;-60
2022/03/24 20:11:54;;;;;;;22.13;5.47;;;;;;;;;;10286251;28;20027;-59
2022/03/24 20:16:55;;;;;;;19.67;5.32;;;;;;;;;;10281613;28;20031;-59
2022/03/24 20:21:56;;;;;;;33.95;6.00;;;;;;;;;;10287129;28;20044;-59
2022/03/24 20:26:57;;;;;;;20.08;5.88;;;;;;;;;;10283122;28;20097;-59
2022/03/24 20:31:58;;;;;;;22.83;5.90;;;;;;;;;;10285705;28;20029;-59
2022/03/24 20:36:58;;;;;;;16.63;6.25;;;;;;;;;;10285293;28;20027;-59
2022/03/24 20:41:59;;;;;;;21.20;5.60;;;;;;;;;;10287296;28;20609;-59
2022/03/24 20:47:00;;;;;;;22.23;5.60;;;;;;;;;;10287158;28;20101;-60
2022/03/24 20:52:02;;;;;;;21.52;5.80;;;;;;;;;;10288235;28;20489;-59
2022/03/24 20:57:02;;;;;;;16.77;5.68;;;;;;;;;;10285742;28;20042;-59
2022/03/24 21:02:04;;;;;;;15.13;6.30;;;;;;;;;;10274941;28;20492;-59
2022/03/24 21:07:04;;;;;;;13.38;5.35;;;;;;;;;;10287438;28;20031;-59
2022/03/24 21:12:05;;;;;;;11.18;5.28;;;;;;;;;;10284233;28;20046;-60
2022/03/24 21:17:06;;;;;;;15.43;5.10;;;;;;;;;;10283301;28;20111;-60
2022/03/24 21:22:07;;;;;;;14.18;5.03;;;;;;;;;;10290386;28;20643;-59
2022/03/24 21:27:08;;;;;;;10.52;5.22;;;;;;;;;;10293744;28;20042;-59
2022/03/24 21:32:08;;;;;;;18.83;5.57;;;;;;;;;;10289548;28;20469;-59
2022/03/24 21:37:09;;;;;;;16.92;5.70;;;;;;;;;;10288946;28;20034;-60
2022/03/24 21:42:10;;;;;;;15.50;5.72;;;;;;;;;;10285514;28;20127;-60
2022/03/24 21:47:11;;;;;;;19.67;6.15;;;;;;;;;;10286386;28;20034;-59
2022/03/24 21:52:11;;;;;;;15.27;5.85;;;;;;;;;;10291387;28;20039;-60
2022/03/24 21:57:12;;;;;;;18.02;6.15;;;;;;;;;;10289970;28;20050;-60
2022/03/24 22:02:13;;;;;;;21.05;6.13;;;;;;;;;;10283075;28;20038;-59
2022/03/24 22:07:13;;;;;;;18.08;6.60;;;;;;;;;;10287132;28;20030;-58
2022/03/24 22:12:14;;;;;;;22.10;6.40;;;;;;;;;;10275223;28;20039;-62
2022/03/24 22:17:14;;;;;;;16.02;6.38;;;;;;;;;;10289954;28;20625;-60
2022/03/24 22:22:15;;;;;;;24.05;6.57;;;;;;;;;;10295401;28;20039;-61
2022/03/24 22:27:16;;;;;;;18.45;6.25;;;;;;;;;;10289009;28;22107;-61
2022/03/24 22:32:16;;;;;;;14.98;6.28;;;;;;;;;;10285882;28;20034;-61
2022/03/24 22:37:17;;;;;;;18.63;6.78;;;;;;;;;;10280959;28;20066;-60
2022/03/24 22:42:18;;;;;;;33.83;8.00;;;;;;;;;;10294439;28;20644;-60
2022/03/24 22:47:18;;;;;;;25.40;8.50;;;;;;;;;;10287970;28;20042;-59
2022/03/24 22:52:19;;;;;;;33.38;9.20;;;;;;;;;;10278218;28;20070;-59
2022/03/24 22:57:20;;;;;;;28.27;7.93;;;;;;;;;;10292117;28;20039;-58
2022/03/24 23:02:20;;;;;;;27.50;7.57;;;;;;;;;;10299313;28;20041;-59
2022/03/24 23:07:21;;;;;;;25.67;6.72;;;;;;;;;;10293476;28;20045;-59
2022/03/24 23:12:22;;;;;;;19.02;6.97;;;;;;;;;;10286481;28;20035;-59
2022/03/24 23:17:25;;;;;;;23.15;7.38;;;;;;;;;;10286485;28;20027;-59
2022/03/24 23:22:25;;;;;;;22.73;7.00;;;;;;;;;;10297278;28;20062;-59
2022/03/24 23:27:26;;;;;;;21.52;7.00;;;;;;;;;;10293199;28;20442;-59
2022/03/24 23:32:27;;;;;;;22.60;7.35;;;;;;;;;;10296874;28;20055;-59
2022/03/24 23:37:27;;;;;;;30.95;8.25;;;;;;;;;;10290124;28;20069;-59
2022/03/24 23:42:28;;;;;;;20.73;6.05;;;;;;;;;;10295973;28;20031;-60
2022/03/24 23:47:29;;;;;;;21.35;7.70;;;;;;;;;;10288701;28;20037;-59
2022/03/24 23:52:29;;;;;;;23.63;6.88;;;;;;;;;;10290955;28;20048;-59
2022/03/24 23:57:30;;;;;;;19.98;6.57;;;;;;;;;;10287830;28;20043;-59
